Hyalite Weather Station

This weather station provides temperature, wind speed, gust or max wind speed, and wind direction at 9982ft near the summit of Flanders Mountain. This data can be used with temperature and precipitation data from the Shower Falls SNOTEL site. If the data has not been updated recently you can view it directly on datagarrison.com

Elevation
9982ft
Jump to table bottom
Date Time Temperature
deg F
RH, % Wind Speed Wind Gust Wind Direction
03/22/20 13:00 41.0 95 0 8 S - 198
03/22/20 12:00 32.4 71 7 26 SW - 243
03/22/20 11:00 16.2 73 10 20 W - 265
03/22/20 10:00 15.4 83 13 28 W - 264
03/22/20 09:00 12.3 91 18 34 W - 265
03/22/20 08:00 10.8 92 21 32 W - 263
03/22/20 07:00 11.9 93 19 35 W - 271
03/22/20 06:00 14.2 93 17 27 W - 261
03/22/20 05:00 13.8 93 17 28 W - 260
03/22/20 04:00 14.5 91 16 26 W - 261
03/22/20 03:00 15.3 85 18 37 W - 263
03/22/20 02:00 15.7 80 18 31 W - 261
03/22/20 01:00 15.9 87 17 36 W - 261
03/22/20 00:00 16.4 91 12 20 W - 253
03/21/20 23:00 16.3 93 8 18 W - 278
03/21/20 22:00 16.6 83 6 11 W - 274
03/21/20 21:00 18.4 73 9 17 W - 250
03/21/20 20:00 19.6 70 12 19 W - 248
03/21/20 19:00 19.4 82 8 13 W - 279
03/21/20 18:00 20.0 83 6 11 NW - 313
03/21/20 17:00 20.4 76 7 13 W - 286
03/21/20 16:00 23.4 72 8 15 W - 265
03/21/20 15:00 24.7 72 8 14 W - 253
03/21/20 14:00 23.7 68 9 15 W - 248
03/21/20 13:00 22.6 63 9 15 SW - 243
03/21/20 12:00 21.1 63 10 17 W - 254
03/21/20 11:00 19.1 69 7 15 SW - 246
03/21/20 10:00 17.4 72 6 10 SW - 236
03/21/20 09:00 16.5 72 5 11 W - 265
03/21/20 08:00 15.6 75 8 14 W - 260
03/21/20 07:00 14.9 78 12 17 W - 257
03/21/20 06:00 14.0 81 12 16 W - 253
03/21/20 05:00 14.9 83 11 17 W - 254
03/21/20 04:00 15.3 87 12 17 W - 267
03/21/20 03:00 14.9 88 12 22 W - 271
03/21/20 02:00 15.7 83 13 19 W - 265
03/21/20 01:00 16.3 82 14 21 W - 264
03/21/20 00:00 16.7 81 15 23 W - 265
03/20/20 23:00 17.2 84 15 23 W - 268
03/20/20 22:00 17.5 87 14 22 W - 265
03/20/20 21:00 18.3 84 15 24 W - 260
03/20/20 20:00 18.2 80 12 23 W - 265
03/20/20 19:00 18.5 78 9 19 W - 261
03/20/20 18:00 18.8 79 10 16 W - 263
03/20/20 17:00 20.8 81 9 20 W - 267
03/20/20 16:00 22.3 82 10 18 W - 258
03/20/20 15:00 21.2 87 9 16 W - 261
03/20/20 14:00 20.7 87 7 14 W - 284
03/20/20 13:00 19.1 86 7 15 W - 277
03/20/20 12:00 19.4 81 7 16 W - 272